sensor_id;sensor_type;location;lat;lon;timestamp;pressure;altitude;pressure_sealevel;temperature;humidity
10688;BME280;5392;42.688;23.298;2023-06-22T00:01:20;57392.56;;;-144.48;100.00
10688;BME280;5392;42.688;23.298;2023-06-22T00:03:49;57329.94;;;-144.48;100.00
10688;BME280;5392;42.688;23.298;2023-06-22T00:06:16;57367.50;;;-144.48;100.00
10688;BME280;5392;42.688;23.298;2023-06-22T00:08:43;57329.94;;;-144.48;100.00
10688;BME280;5392;42.688;23.298;2023-06-22T00:11:10;57317.41;;;-144.48;100.00
10688;BME280;5392;42.688;23.298;2023-06-22T00:13:38;57354.97;;;-144.48;100.00
10688;BME280;5392;42.688;23.298;2023-06-22T00:16:05;57354.97;;;-144.48;100.00
10688;BME280;5392;42.688;23.298;2023-06-22T00:18:32;57373.75;;;-144.48;100.00
10688;BME280;5392;42.688;23.298;2023-06-22T00:20:59;57380.03;;;-144.48;100.00
10688;BME280;5392;42.688;23.298;2023-06-22T00:23:26;57415.50;;;-144.48;100.00
10688;BME280;5392;42.688;23.298;2023-06-22T00:25:53;57336.19;;;-144.48;100.00
10688;BME280;5392;42.688;23.298;2023-06-22T00:28:20;57388.38;;;-144.48;100.00
10688;BME280;5392;42.688;23.298;2023-06-22T00:30:48;57354.97;;;-144.48;100.00
10688;BME280;5392;42.688;23.298;2023-06-22T00:33:15;57386.28;;;-144.48;100.00
10688;BME280;5392;42.688;23.298;2023-06-22T00:35:43;57382.13;;;-144.48;100.00
10688;BME280;5392;42.688;23.298;2023-06-22T00:38:11;57363.31;;;-144.48;100.00
10688;BME280;5392;42.688;23.298;2023-06-22T00:40:37;57375.84;;;-144.48;100.00
10688;BME280;5392;42.688;23.298;2023-06-22T00:43:05;57363.31;;;-144.48;100.00
10688;BME280;5392;42.688;23.298;2023-06-22T00:45:31;57352.91;;;-144.48;100.00
10688;BME280;5392;42.688;23.298;2023-06-22T00:47:59;57396.72;;;-144.48;100.00
10688;BME280;5392;42.688;23.298;2023-06-22T00:50:28;57354.97;;;-144.48;100.00
10688;BME280;5392;42.688;23.298;2023-06-22T00:53:05;57371.69;;;-144.48;100.00
10688;BME280;5392;42.688;23.298;2023-06-22T00:55:45;57354.97;;;-144.48;100.00
10688;BME280;5392;42.688;23.298;2023-06-22T00:58:13;57340.38;;;-144.48;100.00
10688;BME280;5392;42.688;23.298;2023-06-22T01:00:41;57338.28;;;-144.48;100.00
10688;BME280;5392;42.688;23.298;2023-06-22T01:03:09;57342.47;;;-144.48;100.00
10688;BME280;5392;42.688;23.298;2023-06-22T01:05:38;57363.31;;;-144.48;100.00
10688;BME280;5392;42.688;23.298;2023-06-22T01:08:12;57365.41;;;-144.48;100.00
10688;BME280;5392;42.688;23.298;2023-06-22T01:10:51;57367.50;;;-144.48;100.00
10688;BME280;5392;42.688;23.298;2023-06-22T01:16:20;57359.16;;;-144.48;100.00
10688;BME280;5392;42.688;23.298;2023-06-22T01:18:52;57367.50;;;-144.48;100.00
10688;BME280;5392;42.688;23.298;2023-06-22T01:21:20;57354.97;;;-144.48;100.00
10688;BME280;5392;42.688;23.298;2023-06-22T01:29:29;57348.72;;;-144.48;100.00
10688;BME280;5392;42.688;23.298;2023-06-22T01:31:57;57350.81;;;-144.48;100.00
10688;BME280;5392;42.688;23.298;2023-06-22T01:34:26;57340.38;;;-144.48;100.00
10688;BME280;5392;42.688;23.298;2023-06-22T01:36:54;57380.03;;;-144.48;100.00
10688;BME280;5392;42.688;23.298;2023-06-22T01:39:21;57357.06;;;-144.48;100.00
10688;BME280;5392;42.688;23.298;2023-06-22T01:41:49;57382.13;;;-144.48;100.00
10688;BME280;5392;42.688;23.298;2023-06-22T01:44:16;57369.59;;;-144.48;100.00
10688;BME280;5392;42.688;23.298;2023-06-22T01:46:43;57340.38;;;-144.48;100.00
10688;BME280;5392;42.688;23.298;2023-06-22T01:49:10;57375.84;;;-144.48;100.00
10688;BME280;5392;42.688;23.298;2023-06-22T01:51:37;57350.81;;;-144.48;100.00
10688;BME280;5392;42.688;23.298;2023-06-22T01:54:06;57348.72;;;-144.48;100.00
10688;BME280;5392;42.688;23.298;2023-06-22T01:56:33;57423.88;;;-144.48;100.00
10688;BME280;5392;42.688;23.298;2023-06-22T02:01:47;57373.75;;;-144.48;100.00
10688;BME280;5392;42.688;23.298;2023-06-22T02:04:24;57371.69;;;-144.48;100.00
10688;BME280;5392;42.688;23.298;2023-06-22T02:06:56;57403.00;;;-144.48;100.00
10688;BME280;5392;42.688;23.298;2023-06-22T02:09:25;57377.94;;;-144.48;100.00
10688;BME280;5392;42.688;23.298;2023-06-22T02:11:56;57342.47;;;-144.48;100.00
10688;BME280;5392;42.688;23.298;2023-06-22T02:14:24;57357.06;;;-144.48;100.00
10688;BME280;5392;42.688;23.298;2023-06-22T02:16:51;57352.91;;;-144.48;100.00
10688;BME280;5392;42.688;23.298;2023-06-22T02:19:23;57371.69;;;-144.48;100.00
10688;BME280;5392;42.688;23.298;2023-06-22T02:21:50;57359.16;;;-144.48;100.00
10688;BME280;5392;42.688;23.298;2023-06-22T02:24:16;57367.50;;;-144.48;100.00
10688;BME280;5392;42.688;23.298;2023-06-22T02:26:43;57396.72;;;-144.48;100.00
10688;BME280;5392;42.688;23.298;2023-06-22T02:29:12;57354.97;;;-144.48;100.00
10688;BME280;5392;42.688;23.298;2023-06-22T02:31:38;57371.69;;;-144.48;100.00
10688;BME280;5392;42.688;23.298;2023-06-22T02:34:06;57340.38;;;-144.48;100.00
10688;BME280;5392;42.688;23.298;2023-06-22T02:36:32;57396.72;;;-144.48;100.00
10688;BME280;5392;42.688;23.298;2023-06-22T02:39:00;57344.53;;;-144.48;100.00
10688;BME280;5392;42.688;23.298;2023-06-22T02:41:28;57363.31;;;-144.48;100.00
10688;BME280;5392;42.688;23.298;2023-06-22T02:43:54;57388.38;;;-144.48;100.00
10688;BME280;5392;42.688;23.298;2023-06-22T02:46:21;57380.03;;;-144.48;100.00
10688;BME280;5392;42.688;23.298;2023-06-22T02:48:48;57367.50;;;-144.48;100.00
10688;BME280;5392;42.688;23.298;2023-06-22T02:51:15;57388.38;;;-144.48;100.00
10688;BME280;5392;42.688;23.298;2023-06-22T02:53:42;57344.53;;;-144.48;100.00
10688;BME280;5392;42.688;23.298;2023-06-22T02:56:11;57388.38;;;-144.48;100.00
10688;BME280;5392;42.688;23.298;2023-06-22T02:58:39;57394.63;;;-144.48;100.00
10688;BME280;5392;42.688;23.298;2023-06-22T03:01:06;57334.09;;;-144.48;100.00
10688;BME280;5392;42.688;23.298;2023-06-22T03:03:33;57375.84;;;-144.48;100.00
10688;BME280;5392;42.688;23.298;2023-06-22T03:06:00;57375.84;;;-144.48;100.00
10688;BME280;5392;42.688;23.298;2023-06-22T03:08:29;57371.69;;;-144.48;100.00
10688;BME280;5392;42.688;23.298;2023-06-22T03:10:56;57371.69;;;-144.48;100.00
10688;BME280;5392;42.688;23.298;2023-06-22T03:13:23;57359.16;;;-144.48;100.00
10688;BME280;5392;42.688;23.298;2023-06-22T03:15:51;57373.75;;;-144.48;100.00
10688;BME280;5392;42.688;23.298;2023-06-22T03:18:17;57296.53;;;-144.48;100.00
10688;BME280;5392;42.688;23.298;2023-06-22T03:20:44;57354.97;;;-144.48;100.00
10688;BME280;5392;42.688;23.298;2023-06-22T03:23:11;57363.31;;;-144.48;100.00
10688;BME280;5392;42.688;23.298;2023-06-22T03:25:38;57346.63;;;-144.48;100.00
10688;BME280;5392;42.688;23.298;2023-06-22T03:28:04;57363.31;;;-144.48;100.00
10688;BME280;5392;42.688;23.298;2023-06-22T03:30:31;57338.28;;;-144.48;95.84
10688;BME280;5392;42.688;23.298;2023-06-22T03:32:58;57321.59;;;-144.48;93.62
10688;BME280;5392;42.688;23.298;2023-06-22T03:35:25;57369.59;;;-144.48;91.97
10688;BME280;5392;42.688;23.298;2023-06-22T03:37:51;57315.31;;;-144.48;87.24
10688;BME280;5392;42.688;23.298;2023-06-22T03:40:18;57332.03;;;-144.48;81.42
10688;BME280;5392;42.688;23.298;2023-06-22T03:42:45;57375.84;;;-144.48;77.68
10688;BME280;5392;42.688;23.298;2023-06-22T03:45:12;57296.53;;;-144.48;76.40
10688;BME280;5392;42.688;23.298;2023-06-22T03:47:40;57342.47;;;-144.48;73.24
10688;BME280;5392;42.688;23.298;2023-06-22T03:50:07;57334.09;;;-144.48;70.93
10688;BME280;5392;42.688;23.298;2023-06-22T03:52:34;57298.63;;;-144.48;68.20
10688;BME280;5392;42.688;23.298;2023-06-22T03:55:01;57329.94;;;-144.48;68.11
10688;BME280;5392;42.688;23.298;2023-06-22T03:57:28;57279.84;;;-144.48;66.54
10688;BME280;5392;42.688;23.298;2023-06-22T03:59:56;57286.09;;;-144.48;65.87
10688;BME280;5392;42.688;23.298;2023-06-22T04:02:24;57319.50;;;-144.48;66.29
10688;BME280;5392;42.688;23.298;2023-06-22T04:04:51;57344.53;;;-144.48;67.37
10688;BME280;5392;42.688;23.298;2023-06-22T04:07:18;57338.28;;;-144.48;69.62
10688;BME280;5392;42.688;23.298;2023-06-22T04:09:45;57329.94;;;-144.48;70.53
10688;BME280;5392;42.688;23.298;2023-06-22T04:12:11;57340.38;;;-144.48;68.00
10688;BME280;5392;42.688;23.298;2023-06-22T04:14:38;57288.19;;;-144.48;65.86
10688;BME280;5392;42.688;23.298;2023-06-22T04:17:05;57309.06;;;-144.48;66.72
10688;BME280;5392;42.688;23.298;2023-06-22T04:19:31;57321.59;;;-144.48;65.63
10688;BME280;5392;42.688;23.298;2023-06-22T04:21:58;57294.44;;;-144.48;63.41
10688;BME280;5392;42.688;23.298;2023-06-22T04:24:25;57273.56;;;-144.48;63.07
10688;BME280;5392;42.688;23.298;2023-06-22T04:26:51;57300.72;;;-144.48;62.82
10688;BME280;5392;42.688;23.298;2023-06-22T04:29:21;57292.38;;;-144.48;60.91
10688;BME280;5392;42.688;23.298;2023-06-22T04:31:56;57306.97;;;-144.48;59.10
10688;BME280;5392;42.688;23.298;2023-06-22T04:34:25;57261.06;;;-144.48;56.10
10688;BME280;5392;42.688;23.298;2023-06-22T04:36:52;57286.09;;;-144.48;54.45
10688;BME280;5392;42.688;23.298;2023-06-22T04:39:20;57265.22;;;-144.48;55.36
10688;BME280;5392;42.688;23.298;2023-06-22T04:41:47;57286.09;;;-144.48;56.96
10688;BME280;5392;42.688;23.298;2023-06-22T04:44:16;57292.38;;;-144.48;56.40
10688;BME280;5392;42.688;23.298;2023-06-22T04:46:52;57271.50;;;-144.48;55.44
10688;BME280;5392;42.688;23.298;2023-06-22T04:49:21;57250.63;;;-144.48;53.43
10688;BME280;5392;42.688;23.298;2023-06-22T04:51:48;57248.53;;;-144.48;52.30
10688;BME280;5392;42.688;23.298;2023-06-22T04:54:18;57263.16;;;-144.48;50.65
10688;BME280;5392;42.688;23.298;2023-06-22T04:56:44;57279.84;;;-144.48;51.83
10688;BME280;5392;42.688;23.298;2023-06-22T04:59:13;57240.19;;;-144.48;51.02
10688;BME280;5392;42.688;23.298;2023-06-22T05:01:39;57219.31;;;-144.48;51.52
10688;BME280;5392;42.688;23.298;2023-06-22T05:04:06;57248.53;;;-144.48;50.13
10688;BME280;5392;42.688;23.298;2023-06-22T05:06:34;57233.91;;;-144.48;50.69
10688;BME280;5392;42.688;23.298;2023-06-22T05:09:01;57258.97;;;-144.48;49.44
10688;BME280;5392;42.688;23.298;2023-06-22T05:11:29;57233.91;;;-144.48;49.77
10688;BME280;5392;42.688;23.298;2023-06-22T05:13:56;57254.78;;;-144.48;51.34
10688;BME280;5392;42.688;23.298;2023-06-22T05:16:25;57254.78;;;-144.48;51.42
10688;BME280;5392;42.688;23.298;2023-06-22T05:18:53;57256.88;;;-144.48;52.00
10688;BME280;5392;42.688;23.298;2023-06-22T05:21:24;57221.41;;;-144.48;50.86
10688;BME280;5392;42.688;23.298;2023-06-22T05:23:52;57288.19;;;-144.48;50.79
10688;BME280;5392;42.688;23.298;2023-06-22T05:26:20;57225.56;;;-144.48;48.88
10688;BME280;5392;42.688;23.298;2023-06-22T05:28:47;57177.56;;;-144.48;48.77
10688;BME280;5392;42.688;23.298;2023-06-22T05:31:14;57244.34;;;-144.48;47.90
10688;BME280;5392;42.688;23.298;2023-06-22T05:33:43;57225.56;;;-144.48;47.96
10688;BME280;5392;42.688;23.298;2023-06-22T05:36:10;57242.28;;;-144.48;47.13
10688;BME280;5392;42.688;23.298;2023-06-22T05:38:37;57231.84;;;-144.48;48.58
10688;BME280;5392;42.688;23.298;2023-06-22T05:41:04;57256.88;;;-144.48;48.47
10688;BME280;5392;42.688;23.298;2023-06-22T05:43:31;57200.53;;;-144.48;46.75
10688;BME280;5392;42.688;23.298;2023-06-22T05:45:58;57188.00;;;-144.48;46.22
10688;BME280;5392;42.688;23.298;2023-06-22T05:48:25;57215.13;;;-144.48;46.45
10688;BME280;5392;42.688;23.298;2023-06-22T05:50:52;57221.41;;;-144.48;46.92
10688;BME280;5392;42.688;23.298;2023-06-22T05:53:19;57242.28;;;-144.48;47.36
10688;BME280;5392;42.688;23.298;2023-06-22T05:55:46;57240.19;;;-144.48;48.51
10688;BME280;5392;42.688;23.298;2023-06-22T05:58:14;57246.44;;;-144.48;47.65
10688;BME280;5392;42.688;23.298;2023-06-22T06:00:41;57200.53;;;-144.48;47.40
10688;BME280;5392;42.688;23.298;2023-06-22T06:03:10;57223.50;;;-144.48;46.31
10688;BME280;5392;42.688;23.298;2023-06-22T06:05:40;57229.75;;;-144.48;47.03
10688;BME280;5392;42.688;23.298;2023-06-22T06:08:07;57206.78;;;-144.48;47.67
10688;BME280;5392;42.688;23.298;2023-06-22T06:10:35;57236.00;;;-144.48;46.56
10688;BME280;5392;42.688;23.298;2023-06-22T06:13:01;57225.56;;;-144.48;46.91
10688;BME280;5392;42.688;23.298;2023-06-22T06:15:29;57240.19;;;-144.48;46.20
10688;BME280;5392;42.688;23.298;2023-06-22T06:17:55;57254.78;;;-144.48;46.50
10688;BME280;5392;42.688;23.298;2023-06-22T06:20:24;57219.31;;;-144.48;46.40
10688;BME280;5392;42.688;23.298;2023-06-22T06:22:51;57206.78;;;-144.48;46.16
10688;BME280;5392;42.688;23.298;2023-06-22T06:25:18;57190.09;;;-144.48;45.96
10688;BME280;5392;42.688;23.298;2023-06-22T06:27:47;57198.44;;;-144.48;44.48
10688;BME280;5392;42.688;23.298;2023-06-22T06:30:15;57198.44;;;-144.48;43.71
10688;BME280;5392;42.688;23.298;2023-06-22T06:32:43;57194.25;;;-144.48;43.40
10688;BME280;5392;42.688;23.298;2023-06-22T06:35:13;57181.75;;;-144.48;44.38
10688;BME280;5392;42.688;23.298;2023-06-22T06:37:41;57213.06;;;-144.48;44.98
10688;BME280;5392;42.688;23.298;2023-06-22T06:40:10;57219.31;;;-144.48;45.12
10688;BME280;5392;42.688;23.298;2023-06-22T06:42:48;57227.66;;;-144.48;45.19
10688;BME280;5392;42.688;23.298;2023-06-22T06:45:16;57231.84;;;-144.48;44.74
10688;BME280;5392;42.688;23.298;2023-06-22T06:47:44;57173.41;;;-144.48;45.21
10688;BME280;5392;42.688;23.298;2023-06-22T06:50:11;57204.69;;;-144.48;46.58
10688;BME280;5392;42.688;23.298;2023-06-22T06:52:38;57263.16;;;-144.48;47.72
10688;BME280;5392;42.688;23.298;2023-06-22T06:55:05;57252.72;;;-144.48;48.88
10688;BME280;5392;42.688;23.298;2023-06-22T06:57:39;57240.19;;;-144.48;48.46
10688;BME280;5392;42.688;23.298;2023-06-22T07:00:11;57217.22;;;-144.48;46.02
10688;BME280;5392;42.688;23.298;2023-06-22T07:02:42;57204.69;;;-144.48;45.54
10688;BME280;5392;42.688;23.298;2023-06-22T07:05:10;57204.69;;;-144.48;45.67
10688;BME280;5392;42.688;23.298;2023-06-22T07:07:38;57215.13;;;-144.48;44.98
10688;BME280;5392;42.688;23.298;2023-06-22T07:10:06;57219.31;;;-144.48;44.22
10688;BME280;5392;42.688;23.298;2023-06-22T07:12:33;57196.34;;;-144.48;43.94
10688;BME280;5392;42.688;23.298;2023-06-22T07:15:04;57185.91;;;-144.48;43.20
10688;BME280;5392;42.688;23.298;2023-06-22T07:17:31;57156.69;;;-144.48;43.19
10688;BME280;5392;42.688;23.298;2023-06-22T07:19:58;57233.91;;;-144.48;44.33
10688;BME280;5392;42.688;23.298;2023-06-22T07:22:25;57200.53;;;-144.48;43.64
10688;BME280;5392;42.688;23.298;2023-06-22T07:24:52;57171.31;;;-144.48;43.02
10688;BME280;5392;42.688;23.298;2023-06-22T07:27:18;57162.97;;;-144.48;42.99
10688;BME280;5392;42.688;23.298;2023-06-22T07:29:46;57154.59;;;-144.48;42.58
10688;BME280;5392;42.688;23.298;2023-06-22T07:32:13;57142.09;;;-144.48;42.59
10688;BME280;5392;42.688;23.298;2023-06-22T07:34:40;57177.56;;;-144.48;43.77
10688;BME280;5392;42.688;23.298;2023-06-22T07:37:07;57183.84;;;-144.48;43.84
10688;BME280;5392;42.688;23.298;2023-06-22T07:39:34;57142.09;;;-144.48;44.15
10688;BME280;5392;42.688;23.298;2023-06-22T07:42:01;57148.34;;;-144.48;43.25
10688;BME280;5392;42.688;23.298;2023-06-22T07:44:28;57219.31;;;-144.48;43.71
10688;BME280;5392;42.688;23.298;2023-06-22T07:46:54;57217.22;;;-144.48;43.86
10688;BME280;5392;42.688;23.298;2023-06-22T07:49:21;57215.13;;;-144.48;44.89
10688;BME280;5392;42.688;23.298;2023-06-22T07:51:48;57160.88;;;-144.48;44.35
10688;BME280;5392;42.688;23.298;2023-06-22T07:54:14;57190.09;;;-144.48;44.24
10688;BME280;5392;42.688;23.298;2023-06-22T07:56:42;57208.88;;;-144.48;45.56
10688;BME280;5392;42.688;23.298;2023-06-22T07:59:09;57194.25;;;-144.48;46.34
10688;BME280;5392;42.688;23.298;2023-06-22T08:01:36;57213.06;;;-144.48;46.08
10688;BME280;5392;42.688;23.298;2023-06-22T08:04:03;57258.97;;;-144.48;47.51
10688;BME280;5392;42.688;23.298;2023-06-22T08:06:30;57223.50;;;-144.48;47.88
10688;BME280;5392;42.688;23.298;2023-06-22T08:08:57;57204.69;;;-144.48;46.18
10688;BME280;5392;42.688;23.298;2023-06-22T08:11:25;57217.22;;;-144.48;45.54
10688;BME280;5392;42.688;23.298;2023-06-22T08:13:52;57177.56;;;-144.48;44.13
10688;BME280;5392;42.688;23.298;2023-06-22T08:16:19;57179.66;;;-144.48;44.33
10688;BME280;5392;42.688;23.298;2023-06-22T08:18:46;57231.84;;;-144.48;45.11
10688;BME280;5392;42.688;23.298;2023-06-22T08:21:13;57181.75;;;-144.48;43.76
10688;BME280;5392;42.688;23.298;2023-06-22T08:23:40;57179.66;;;-144.48;42.64
10688;BME280;5392;42.688;23.298;2023-06-22T08:26:07;57131.66;;;-144.48;42.74
10688;BME280;5392;42.688;23.298;2023-06-22T08:28:33;57194.25;;;-144.48;43.43
10688;BME280;5392;42.688;23.298;2023-06-22T08:31:02;57160.88;;;-144.48;43.48
10688;BME280;5392;42.688;23.298;2023-06-22T08:33:29;57196.34;;;-144.48;44.10
10688;BME280;5392;42.688;23.298;2023-06-22T08:35:56;57156.69;;;-144.48;44.39
10688;BME280;5392;42.688;23.298;2023-06-22T08:38:23;57223.50;;;-144.48;43.89
10688;BME280;5392;42.688;23.298;2023-06-22T08:40:50;57196.34;;;-144.48;43.92
10688;BME280;5392;42.688;23.298;2023-06-22T08:43:16;57183.84;;;-144.48;44.20
10688;BME280;5392;42.688;23.298;2023-06-22T08:45:43;57162.97;;;-144.48;44.28
10688;BME280;5392;42.688;23.298;2023-06-22T08:48:11;57219.31;;;-144.48;44.93
10688;BME280;5392;42.688;23.298;2023-06-22T08:50:37;57137.91;;;-144.48;43.32
10688;BME280;5392;42.688;23.298;2023-06-22T08:53:05;57183.84;;;-144.48;43.02
10688;BME280;5392;42.688;23.298;2023-06-22T08:55:33;57183.84;;;-144.48;43.67
10688;BME280;5392;42.688;23.298;2023-06-22T08:57:59;57183.84;;;-144.48;43.63
10688;BME280;5392;42.688;23.298;2023-06-22T09:00:26;57162.97;;;-144.48;43.08
10688;BME280;5392;42.688;23.298;2023-06-22T09:02:55;57196.34;;;-144.48;43.75
10688;BME280;5392;42.688;23.298;2023-06-22T09:05:26;57185.91;;;-144.48;42.78
10688;BME280;5392;42.688;23.298;2023-06-22T09:07:53;57179.66;;;-144.48;42.95
10688;BME280;5392;42.688;23.298;2023-06-22T09:10:22;57175.47;;;-144.48;43.36
10688;BME280;5392;42.688;23.298;2023-06-22T09:12:49;57210.97;;;-144.48;43.74
10688;BME280;5392;42.688;23.298;2023-06-22T09:15:16;57210.97;;;-144.48;45.41
10688;BME280;5392;42.688;23.298;2023-06-22T09:17:44;57225.56;;;-144.48;45.04
10688;BME280;5392;42.688;23.298;2023-06-22T09:20:13;57221.41;;;-144.48;44.13
10688;BME280;5392;42.688;23.298;2023-06-22T09:22:40;57208.88;;;-144.48;44.23
10688;BME280;5392;42.688;23.298;2023-06-22T09:25:07;57210.97;;;-144.48;44.46
10688;BME280;5392;42.688;23.298;2023-06-22T09:27:34;57215.13;;;-144.48;44.95
10688;BME280;5392;42.688;23.298;2023-06-22T09:30:00;57242.28;;;-144.48;46.48
10688;BME280;5392;42.688;23.298;2023-06-22T09:32:27;57208.88;;;-144.48;46.99
10688;BME280;5392;42.688;23.298;2023-06-22T09:34:54;57225.56;;;-144.48;47.30
10688;BME280;5392;42.688;23.298;2023-06-22T09:37:21;57246.44;;;-144.48;47.68
10688;BME280;5392;42.688;23.298;2023-06-22T09:39:48;57267.31;;;-144.48;48.05
10688;BME280;5392;42.688;23.298;2023-06-22T09:42:14;57265.22;;;-144.48;48.11
10688;BME280;5392;42.688;23.298;2023-06-22T09:44:41;57250.63;;;-144.48;47.79
10688;BME280;5392;42.688;23.298;2023-06-22T09:47:08;57231.84;;;-144.48;47.76
10688;BME280;5392;42.688;23.298;2023-06-22T09:49:34;57275.66;;;-144.48;47.68
10688;BME280;5392;42.688;23.298;2023-06-22T09:52:13;57261.06;;;-144.48;46.99
10688;BME280;5392;42.688;23.298;2023-06-22T09:54:41;57190.09;;;-144.48;47.18
10688;BME280;5392;42.688;23.298;2023-06-22T09:57:09;57227.66;;;-144.48;47.29
10688;BME280;5392;42.688;23.298;2023-06-22T09:59:36;57206.78;;;-144.48;47.23
10688;BME280;5392;42.688;23.298;2023-06-22T10:02:03;57244.34;;;-144.48;46.89
10688;BME280;5392;42.688;23.298;2023-06-22T10:04:29;57225.56;;;-144.48;47.27
10688;BME280;5392;42.688;23.298;2023-06-22T10:06:57;57206.78;;;-144.48;47.08
10688;BME280;5392;42.688;23.298;2023-06-22T10:09:23;57215.13;;;-144.48;46.96
10688;BME280;5392;42.688;23.298;2023-06-22T10:11:50;57265.22;;;-144.48;47.39
10688;BME280;5392;42.688;23.298;2023-06-22T10:14:17;57229.75;;;-144.48;47.62
10688;BME280;5392;42.688;23.298;2023-06-22T10:16:44;57229.75;;;-144.48;48.29
10688;BME280;5392;42.688;23.298;2023-06-22T10:19:11;57258.97;;;-144.48;48.13
10688;BME280;5392;42.688;23.298;2023-06-22T10:21:38;57248.53;;;-144.48;48.46
10688;BME280;5392;42.688;23.298;2023-06-22T10:24:05;57229.75;;;-144.48;49.28
10688;BME280;5392;42.688;23.298;2023-06-22T10:26:35;57292.38;;;-144.48;48.51
10688;BME280;5392;42.688;23.298;2023-06-22T10:29:03;57275.66;;;-144.48;49.64
10688;BME280;5392;42.688;23.298;2023-06-22T10:31:33;57263.16;;;-144.48;49.41
10688;BME280;5392;42.688;23.298;2023-06-22T10:34:00;57279.84;;;-144.48;49.25
10688;BME280;5392;42.688;23.298;2023-06-22T10:36:27;57252.72;;;-144.48;49.94
10688;BME280;5392;42.688;23.298;2023-06-22T10:38:53;57277.75;;;-144.48;50.53
10688;BME280;5392;42.688;23.298;2023-06-22T10:41:22;57252.72;;;-144.48;49.83
10688;BME280;5392;42.688;23.298;2023-06-22T10:43:48;57256.88;;;-144.48;49.44
10688;BME280;5392;42.688;23.298;2023-06-22T10:46:15;57271.50;;;-144.48;48.84
10688;BME280;5392;42.688;23.298;2023-06-22T10:48:42;57250.63;;;-144.48;48.94
10688;BME280;5392;42.688;23.298;2023-06-22T10:51:09;57240.19;;;-144.48;48.22
10688;BME280;5392;42.688;23.298;2023-06-22T10:53:35;57213.06;;;-144.48;47.49
10688;BME280;5392;42.688;23.298;2023-06-22T10:56:02;57238.09;;;-144.48;48.13
10688;BME280;5392;42.688;23.298;2023-06-22T10:58:29;57215.13;;;-144.48;47.66
10688;BME280;5392;42.688;23.298;2023-06-22T11:00:55;57185.91;;;-144.48;46.79
10688;BME280;5392;42.688;23.298;2023-06-22T11:03:22;57202.63;;;-144.48;47.12
10688;BME280;5392;42.688;23.298;2023-06-22T11:05:49;57236.00;;;-144.48;47.60
10688;BME280;5392;42.688;23.298;2023-06-22T11:08:16;57217.22;;;-144.48;48.10
10688;BME280;5392;42.688;23.298;2023-06-22T11:10:43;57238.09;;;-144.48;47.53
10688;BME280;5392;42.688;23.298;2023-06-22T11:13:10;57215.13;;;-144.48;47.68
10688;BME280;5392;42.688;23.298;2023-06-22T11:15:38;57279.84;;;-144.48;48.04
10688;BME280;5392;42.688;23.298;2023-06-22T11:18:05;57240.19;;;-144.48;48.08
10688;BME280;5392;42.688;23.298;2023-06-22T11:20:34;57267.31;;;-144.48;49.56
10688;BME280;5392;42.688;23.298;2023-06-22T11:23:05;57215.13;;;-144.48;48.80
10688;BME280;5392;42.688;23.298;2023-06-22T11:25:35;57229.75;;;-144.48;47.88
10688;BME280;5392;42.688;23.298;2023-06-22T11:28:02;57221.41;;;-144.48;47.99
10688;BME280;5392;42.688;23.298;2023-06-22T11:30:30;57250.63;;;-144.48;47.10
10688;BME280;5392;42.688;23.298;2023-06-22T11:32:58;57286.09;;;-144.48;46.99
10688;BME280;5392;42.688;23.298;2023-06-22T11:35:26;57231.84;;;-144.48;47.28
10688;BME280;5392;42.688;23.298;2023-06-22T11:37:53;57236.00;;;-144.48;47.35
10688;BME280;5392;42.688;23.298;2023-06-22T11:40:19;57236.00;;;-144.48;48.32
10688;BME280;5392;42.688;23.298;2023-06-22T11:42:46;57267.31;;;-144.48;48.65
10688;BME280;5392;42.688;23.298;2023-06-22T11:45:13;57250.63;;;-144.48;48.36
10688;BME280;5392;42.688;23.298;2023-06-22T11:47:40;57238.09;;;-144.48;47.43
10688;BME280;5392;42.688;23.298;2023-06-22T11:50:07;57238.09;;;-144.48;48.90
10688;BME280;5392;42.688;23.298;2023-06-22T11:52:34;57208.88;;;-144.48;50.13
10688;BME280;5392;42.688;23.298;2023-06-22T11:55:03;57240.19;;;-144.48;48.90
10688;BME280;5392;42.688;23.298;2023-06-22T11:57:39;57267.31;;;-144.48;48.56
10688;BME280;5392;42.688;23.298;2023-06-22T12:00:18;57244.34;;;-144.48;48.90
10688;BME280;5392;42.688;23.298;2023-06-22T12:02:45;57217.22;;;-144.48;49.06
10688;BME280;5392;42.688;23.298;2023-06-22T12:05:12;57231.84;;;-144.48;49.36
10688;BME280;5392;42.688;23.298;2023-06-22T12:07:39;57250.63;;;-144.48;49.60
10688;BME280;5392;42.688;23.298;2023-06-22T12:10:06;57225.56;;;-144.48;50.02
10688;BME280;5392;42.688;23.298;2023-06-22T12:12:33;57256.88;;;-144.48;49.54
10688;BME280;5392;42.688;23.298;2023-06-22T12:15:00;57213.06;;;-144.48;50.60
10688;BME280;5392;42.688;23.298;2023-06-22T12:17:30;57288.19;;;-144.48;50.78
10688;BME280;5392;42.688;23.298;2023-06-22T12:19:58;57244.34;;;-144.48;53.06
10688;BME280;5392;42.688;23.298;2023-06-22T12:22:25;57296.53;;;-144.48;55.25
10688;BME280;5392;42.688;23.298;2023-06-22T12:24:52;57277.75;;;-144.48;57.19
10688;BME280;5392;42.688;23.298;2023-06-22T12:27:18;57302.81;;;-144.48;58.03
10688;BME280;5392;42.688;23.298;2023-06-22T12:29:45;57309.06;;;-144.48;62.54
10688;BME280;5392;42.688;23.298;2023-06-22T12:32:13;57321.59;;;-144.48;63.27
10688;BME280;5392;42.688;23.298;2023-06-22T12:34:42;57290.28;;;-144.48;65.14
10688;BME280;5392;42.688;23.298;2023-06-22T12:37:09;57286.09;;;-144.48;68.46
10688;BME280;5392;42.688;23.298;2023-06-22T12:39:36;57288.19;;;-144.48;71.33
10688;BME280;5392;42.688;23.298;2023-06-22T12:42:03;57334.09;;;-144.48;78.68
10688;BME280;5392;42.688;23.298;2023-06-22T12:44:30;57329.94;;;-144.48;76.13
10688;BME280;5392;42.688;23.298;2023-06-22T12:46:57;57352.91;;;-144.48;76.97
10688;BME280;5392;42.688;23.298;2023-06-22T12:49:23;57325.75;;;-144.48;76.88
10688;BME280;5392;42.688;23.298;2023-06-22T12:51:51;57290.28;;;-144.48;80.22